Terminal Aerodrome Forecast
Issued by NWS

Home | Current Version | Previous Version | Text Only | Print | Product List | Glossary On
Versions: 1 2 3 4 5 6 7 8 9 10 11 12 13
236
FTUS43 KOAX 061728
TAFCDR
TAF
KCDR 061728Z 0618/0718 14007KT P6SM BKN200
     FM062100 07015G25KT P6SM VCTS SCT060CB OVC200
     FM070500 06015G25KT P6SM VCSH OVC050=

USA.gov is the U.S. government's official web portal to all federal, state and local government web resources and services.